1A6

Middlesboro-Bell County Airport

Middlesboro, Kentucky, USA
METAR K1A6 170355Z AUTO 00000KT 10SM CLR 00/00 A3019 RMK AO2 T10021002
Observed Flight Rules
Nov-17 @ 03:55 UTC (45 minutes ago) Visual Flight Rules
Visibility Clouds
10 miles
  • Clear skies
Temperatures Readings
Current -0°C / 32°F
Dewpoint -0°C / 32°F
Humidity 100%
Altimeter 30.19" Hg
Pressure 1022 hPa
Elevation 352
METAR K1A6 170355Z AUTO 00000KT 10SM CLR 00/00 A3019 RMK AO2 T10021002
Observed Flight Rules
Nov-17 @ 03:55 UTC
(45 minutes ago)
VFR
Clouds
  • Clear skies
Temperature Dewpoint
-0°C / 32°F -0°C / 32°F
Humidity Altimeter Pressure
100% 30.19" Hg 1022 hPa